createdAt,value
2023-03-16T00:03:59.559Z,59.64
2023-03-16T00:09:04.325Z,59.64
2023-03-16T00:14:09.258Z,59.81
2023-03-16T00:19:14.132Z,59.67
2023-03-16T00:24:19.627Z,59.79
2023-03-16T00:29:24.830Z,59.73
2023-03-16T00:34:29.775Z,59.60
2023-03-16T00:39:35.503Z,59.64
2023-03-16T00:44:41.431Z,59.85
2023-03-16T00:49:46.733Z,59.66
2023-03-16T00:54:53.340Z,59.73
2023-03-16T00:59:58.055Z,59.70
2023-03-16T01:05:05.537Z,59.72
2023-03-16T01:10:11.405Z,59.71
2023-03-16T01:15:16.065Z,59.70
2023-03-16T01:20:21.479Z,59.49
2023-03-16T01:25:26.233Z,59.76
2023-03-16T01:30:31.019Z,59.71
2023-03-16T01:35:35.862Z,59.58
2023-03-16T01:40:40.571Z,59.73
2023-03-16T01:46:08.188Z,59.54
2023-03-16T01:51:15.603Z,59.61
2023-03-16T01:56:23.937Z,59.73
2023-03-16T02:01:29.762Z,59.65
2023-03-16T02:06:35.144Z,59.69
2023-03-16T02:11:40.064Z,59.65
2023-03-16T02:16:44.787Z,59.70
2023-03-16T02:21:54.285Z,59.58
2023-03-16T02:27:00.335Z,59.53
2023-03-16T02:32:06.203Z,59.48
2023-03-16T02:37:11.697Z,59.44
2023-03-16T02:42:18.446Z,59.49
2023-03-16T02:47:28.493Z,59.58
2023-03-16T02:52:33.074Z,59.53
2023-03-16T02:57:38.287Z,59.64
2023-03-16T03:02:43.106Z,59.47
2023-03-16T03:07:48.345Z,59.53
2023-03-16T03:12:53.187Z,59.73
2023-03-16T03:17:58.325Z,59.59
2023-03-16T03:23:03.318Z,59.53
2023-03-16T03:28:08.044Z,59.62
2023-03-16T03:33:13.193Z,59.55
2023-03-16T03:38:18.266Z,59.40
2023-03-16T03:43:23.030Z,59.36
2023-03-16T03:48:27.894Z,59.48
2023-03-16T03:53:32.663Z,59.53
2023-03-16T03:58:37.624Z,59.54
2023-03-16T04:03:45.109Z,59.45
2023-03-16T04:08:50.971Z,59.44
2023-03-16T04:13:55.980Z,59.38
2023-03-16T04:19:01.431Z,59.17
2023-03-16T04:24:06.623Z,59.42
2023-03-16T04:29:11.412Z,59.43
2023-03-16T04:34:16.165Z,59.46
2023-03-16T04:39:21.497Z,59.40
2023-03-16T04:44:26.359Z,59.53
2023-03-16T04:49:31.301Z,59.59
2023-03-16T04:54:36.384Z,59.48
2023-03-16T04:59:41.273Z,59.54
2023-03-16T05:04:46.013Z,59.34
2023-03-16T05:09:51.246Z,59.28
2023-03-16T05:14:55.920Z,59.45
2023-03-16T05:20:01.224Z,59.33
2023-03-16T05:25:06.787Z,59.28
2023-03-16T05:30:13.184Z,59.13
2023-03-16T05:35:17.997Z,59.00
2023-03-16T05:40:23.125Z,59.28
2023-03-16T05:45:28.597Z,59.20
2023-03-16T05:50:32.799Z,58.79
2023-03-16T05:55:37.644Z,58.30
2023-03-16T06:00:42.733Z,58.21
2023-03-16T06:05:47.837Z,58.17
2023-03-16T06:10:52.940Z,58.05
2023-03-16T06:15:57.897Z,58.13
2023-03-16T06:21:03.626Z,58.05
2023-03-16T06:26:08.537Z,58.17
2023-03-16T06:31:13.782Z,58.04
2023-03-16T06:36:18.269Z,58.17
2023-03-16T06:41:22.875Z,58.03
2023-03-16T06:46:28.052Z,58.14
2023-03-16T06:51:32.780Z,58.11
2023-03-16T06:56:37.989Z,58.13
2023-03-16T07:01:44.138Z,58.23
2023-03-16T07:06:48.970Z,58.19
2023-03-16T07:11:57.225Z,58.24
2023-03-16T07:17:02.883Z,58.25
2023-03-16T07:22:08.631Z,58.30
2023-03-16T07:27:15.798Z,58.29
2023-03-16T07:32:22.376Z,58.19
2023-03-16T07:37:27.762Z,58.33
2023-03-16T07:42:35.214Z,58.32
2023-03-16T07:47:40.462Z,58.40
2023-03-16T07:52:46.543Z,58.17
2023-03-16T07:57:51.793Z,58.31
2023-03-16T08:02:57.281Z,58.41
2023-03-16T08:08:02.283Z,58.34
2023-03-16T08:13:07.943Z,58.41
2023-03-16T08:18:13.606Z,58.39
2023-03-16T08:23:22.086Z,58.33
2023-03-16T08:28:28.097Z,58.30
2023-03-16T08:33:34.838Z,58.27
2023-03-16T08:38:44.178Z,58.18
2023-03-16T08:43:52.386Z,58.30
2023-03-16T08:48:58.700Z,58.18
2023-03-16T08:54:05.364Z,58.30
2023-03-16T08:59:23.662Z,58.33
2023-03-16T09:04:38.646Z,58.23
2023-03-16T09:09:44.881Z,58.29
2023-03-16T09:14:51.792Z,58.15
2023-03-16T09:20:08.070Z,58.31
2023-03-16T09:25:21.291Z,58.08
2023-03-16T09:30:26.685Z,58.30
2023-03-16T09:35:35.119Z,58.29
2023-03-16T09:40:42.568Z,58.19
2023-03-16T09:45:53.183Z,57.93
2023-03-16T09:51:02.198Z,58.00
2023-03-16T09:56:10.615Z,57.90
2023-03-16T10:01:22.394Z,57.84
2023-03-16T10:06:29.395Z,57.86
2023-03-16T10:11:38.700Z,57.97
2023-03-16T10:16:48.559Z,58.09
2023-03-16T10:21:55.371Z,58.08
2023-03-16T10:27:04.451Z,58.27
2023-03-16T10:32:13.514Z,58.19
2023-03-16T10:37:18.880Z,58.07
2023-03-16T10:42:26.821Z,57.88
2023-03-16T10:47:41.963Z,58.07
2023-03-16T10:52:49.337Z,57.85
2023-03-16T10:57:56.057Z,57.75
2023-03-16T11:03:02.229Z,58.03
2023-03-16T11:08:12.517Z,57.88
2023-03-16T11:13:22.682Z,58.02
2023-03-16T11:18:32.842Z,58.04
2023-03-16T11:23:41.892Z,58.08
2023-03-16T11:28:48.661Z,58.10
2023-03-16T11:33:57.092Z,58.13
2023-03-16T11:39:10.785Z,58.04
2023-03-16T11:44:23.854Z,57.99
2023-03-16T11:49:39.767Z,58.09
2023-03-16T11:55:01.204Z,57.93
2023-03-16T12:00:19.251Z,57.63
2023-03-16T12:05:34.545Z,57.72
2023-03-16T12:10:43.489Z,57.98
2023-03-16T12:15:53.414Z,57.69
2023-03-16T12:21:03.823Z,57.78
2023-03-16T12:26:18.647Z,57.65
2023-03-16T12:31:31.665Z,57.80
2023-03-16T12:36:50.920Z,57.67
2023-03-16T12:42:04.570Z,57.62
2023-03-16T12:47:15.596Z,57.78
2023-03-16T12:52:23.608Z,57.59
2023-03-16T12:57:31.657Z,57.47
2023-03-16T13:02:37.844Z,57.53
2023-03-16T13:07:50.218Z,57.34
2023-03-16T13:13:08.571Z,57.41
2023-03-16T13:18:25.276Z,57.65
2023-03-16T13:23:47.652Z,57.47
2023-03-16T13:28:54.882Z,57.48
2023-03-16T13:34:01.234Z,57.69
2023-03-16T13:39:15.292Z,57.65
2023-03-16T13:44:23.424Z,57.75
2023-03-16T13:49:33.055Z,57.69
2023-03-16T13:54:39.415Z,57.59
2023-03-16T13:59:45.356Z,57.63
2023-03-16T14:04:49.993Z,57.88
2023-03-16T14:09:58.404Z,57.85
2023-03-16T14:15:06.875Z,57.67
2023-03-16T14:20:19.046Z,57.85
2023-03-16T14:25:25.156Z,57.87
2023-03-16T14:30:31.306Z,57.87
2023-03-16T14:35:41.472Z,57.92
2023-03-16T14:40:53.247Z,57.67
2023-03-16T14:45:58.277Z,57.69
2023-03-16T14:51:04.026Z,57.61
2023-03-16T14:56:13.260Z,57.54
2023-03-16T15:01:18.926Z,57.56
2023-03-16T15:06:25.098Z,57.28
2023-03-16T15:11:31.486Z,57.49
2023-03-16T15:16:36.376Z,57.49
2023-03-16T15:21:41.227Z,57.53
2023-03-16T15:26:46.148Z,57.70
2023-03-16T15:31:52.756Z,57.63
2023-03-16T15:36:59.348Z,57.70
2023-03-16T15:42:06.369Z,57.69
2023-03-16T15:47:11.212Z,57.57
2023-03-16T15:52:21.868Z,57.80
2023-03-16T15:57:27.475Z,57.93
2023-03-16T16:02:32.739Z,58.02
2023-03-16T16:07:37.809Z,57.95
2023-03-16T16:12:42.510Z,58.06
2023-03-16T16:18:13.274Z,58.30
2023-03-16T16:23:14.389Z,58.00
2023-03-16T16:28:20.539Z,58.02
2023-03-16T16:33:26.731Z,58.00
2023-03-16T16:38:31.745Z,58.30
2023-03-16T16:43:37.757Z,58.08
2023-03-16T16:48:43.870Z,58.11
2023-03-16T16:53:48.904Z,58.24
2023-03-16T16:58:54.211Z,58.16
2023-03-16T17:03:59.189Z,58.18
2023-03-16T17:09:05.053Z,58.20
2023-03-16T17:14:13.532Z,58.14
2023-03-16T17:19:23.662Z,58.02
2023-03-16T17:24:29.401Z,58.25
2023-03-16T17:29:35.693Z,58.14
2023-03-16T17:34:40.949Z,58.18
2023-03-16T17:39:48.773Z,58.45
2023-03-16T17:44:55.126Z,58.36
2023-03-16T17:50:00.799Z,58.39
2023-03-16T17:55:06.101Z,58.41
2023-03-16T18:00:20.196Z,58.37
2023-03-16T18:05:26.239Z,58.32
2023-03-16T18:10:32.808Z,58.46
2023-03-16T18:15:38.194Z,58.22
2023-03-16T18:20:44.617Z,58.46
2023-03-16T18:25:50.729Z,58.44
2023-03-16T18:30:57.072Z,58.35
2023-03-16T18:36:03.346Z,58.46
2023-03-16T18:41:15.986Z,58.59
2023-03-16T18:46:23.777Z,58.45
2023-03-16T18:51:29.060Z,58.41
2023-03-16T18:56:34.289Z,58.46
2023-03-16T19:01:39.979Z,58.52
2023-03-16T19:06:44.830Z,58.26
2023-03-16T19:11:49.825Z,58.53
2023-03-16T19:16:55.280Z,58.53
2023-03-16T19:22:03.732Z,58.47
2023-03-16T19:27:15.199Z,58.42
2023-03-16T19:32:20.470Z,58.41
2023-03-16T19:37:26.475Z,58.58
2023-03-16T19:42:33.305Z,58.64
2023-03-16T19:47:38.566Z,58.32
2023-03-16T19:52:43.665Z,58.41
2023-03-16T19:57:49.616Z,58.41
2023-03-16T20:02:55.686Z,58.29
2023-03-16T20:08:01.633Z,58.21
2023-03-16T20:13:07.298Z,58.32
2023-03-16T20:18:15.803Z,58.54
2023-03-16T20:23:21.862Z,58.49
2023-03-16T20:28:29.191Z,58.52
2023-03-16T20:33:34.494Z,58.43
2023-03-16T20:38:39.566Z,58.51
2023-03-16T20:43:44.934Z,58.42
2023-03-16T20:48:49.673Z,58.57
2023-03-16T20:53:54.638Z,58.34
2023-03-16T20:58:59.454Z,58.22
2023-03-16T21:04:04.550Z,58.51
2023-03-16T21:09:09.662Z,58.40
2023-03-16T21:14:16.272Z,58.44
2023-03-16T21:19:22.343Z,58.45
2023-03-16T21:24:27.634Z,58.29
2023-03-16T21:29:32.484Z,58.21
2023-03-16T21:34:37.686Z,58.48
2023-03-16T21:39:42.713Z,58.42
2023-03-16T21:44:47.974Z,58.37
2023-03-16T21:49:53.589Z,58.42
2023-03-16T21:54:58.451Z,58.42
2023-03-16T22:00:04.782Z,58.17
2023-03-16T22:05:23.580Z,58.27
2023-03-16T22:10:29.365Z,58.29
2023-03-16T22:15:34.560Z,58.34
2023-03-16T22:20:39.201Z,58.23
2023-03-16T22:25:44.231Z,58.31
2023-03-16T22:30:48.883Z,58.52
2023-03-16T22:35:53.653Z,58.42
2023-03-16T22:40:59.352Z,58.21
2023-03-16T22:46:04.256Z,58.44
2023-03-16T22:51:14.743Z,58.13
2023-03-16T22:56:20.355Z,58.42
2023-03-16T23:01:28.633Z,58.30
2023-03-16T23:06:33.682Z,58.50
2023-03-16T23:11:39.456Z,58.30
2023-03-16T23:16:44.786Z,58.12
2023-03-16T23:21:49.818Z,58.27
2023-03-16T23:26:55.196Z,58.31
2023-03-16T23:31:59.546Z,58.19
2023-03-16T23:37:04.786Z,58.23
2023-03-16T23:42:09.857Z,58.23
2023-03-16T23:47:14.869Z,58.30
2023-03-16T23:52:19.234Z,58.34
2023-03-16T23:57:23.977Z,58.28
